CPX248 Details

Departure: Theodore Francis Green State Airport (KPVD)
Arrival: Miami International Airport (KMIA) at N/A
Route: JUMPR RIFLE J174 SWL CEBEE WETRO DIW AR22 JORAY HILEY7
Notes:


Current Weather Information
KPVD 191551Z 23010KT 10SM FEW036 FEW100 FEW200 BKN300 32/22 A2998 RMK AO2 SLP152 T03170222
KMIA 191553Z 10011KT 10SM SCT035 BKN200 32/22 A3007 RMK AO2 SLP184 T03170222